createdAt,value
2022-08-22T00:01:12.959Z,20.00
2022-08-22T00:02:49.119Z,21.60
2022-08-22T00:02:49.632Z,21.40
2022-08-22T00:02:54.637Z,21.20
2022-08-22T00:02:55.670Z,20.00
2022-08-22T00:03:08.735Z,20.30
2022-08-22T00:03:46.977Z,20.00
2022-08-22T00:06:32.408Z,20.00
2022-08-22T00:09:06.439Z,20.00
2022-08-22T00:11:39.331Z,19.90
2022-08-22T00:14:09.007Z,19.90
2022-08-22T00:16:42.207Z,19.90
2022-08-22T00:19:21.293Z,19.90
2022-08-22T00:21:57.846Z,20.00
2022-08-22T00:24:27.664Z,20.00
2022-08-22T00:27:15.101Z,19.90
2022-08-22T00:29:52.443Z,20.00
2022-08-22T00:32:22.307Z,20.00
2022-08-22T00:34:58.213Z,19.90
2022-08-22T00:37:31.971Z,19.90
2022-08-22T00:40:03.326Z,20.00
2022-08-22T00:42:32.090Z,20.00
2022-08-22T00:45:00.105Z,20.00
2022-08-22T00:47:40.946Z,19.90
2022-08-22T00:50:40.256Z,20.00
2022-08-22T00:53:16.050Z,20.00
2022-08-22T00:55:46.026Z,20.00
2022-08-22T00:58:18.977Z,20.00
2022-08-22T01:00:51.969Z,20.00
2022-08-22T01:03:27.591Z,20.00
2022-08-22T01:05:57.353Z,20.00
2022-08-22T01:08:31.394Z,20.00
2022-08-22T01:11:01.297Z,20.00
2022-08-22T01:13:43.019Z,20.10
2022-08-22T01:16:32.933Z,20.10
2022-08-22T01:19:08.565Z,20.10
2022-08-22T01:21:44.495Z,20.10
2022-08-22T01:24:34.288Z,20.10
2022-08-22T01:27:13.197Z,20.10
2022-08-22T01:29:59.744Z,20.10
2022-08-22T01:32:26.522Z,20.10
2022-08-22T01:34:59.373Z,20.00
2022-08-22T01:37:31.959Z,20.00
2022-08-22T01:40:17.662Z,20.00
2022-08-22T01:43:04.697Z,20.00
2022-08-22T01:45:31.498Z,20.00
2022-08-22T01:48:10.581Z,20.00
2022-08-22T01:50:49.500Z,20.00
2022-08-22T01:53:22.943Z,20.00
2022-08-22T01:55:52.771Z,20.10
2022-08-22T01:58:24.748Z,20.00
2022-08-22T02:00:56.700Z,20.10
2022-08-22T02:03:26.676Z,20.00
2022-08-22T02:05:59.912Z,20.00
2022-08-22T02:08:31.734Z,20.00
2022-08-22T02:11:24.957Z,20.00
2022-08-22T02:13:57.148Z,20.00
2022-08-22T02:16:23.951Z,20.10
2022-08-22T02:19:05.451Z,20.10
2022-08-22T02:21:41.303Z,20.10
2022-08-22T02:24:17.081Z,20.10
2022-08-22T02:26:50.367Z,20.10
2022-08-22T02:29:20.584Z,20.10
2022-08-22T02:32:16.693Z,20.10
2022-08-22T02:34:55.466Z,20.10
2022-08-22T02:37:32.006Z,20.10
2022-08-22T02:39:58.824Z,20.10
2022-08-22T02:42:34.543Z,20.10
2022-08-22T02:45:36.752Z,20.10
2022-08-22T02:48:03.523Z,20.10
2022-08-22T02:50:57.147Z,20.10
2022-08-22T02:53:38.172Z,20.10
2022-08-22T02:56:05.030Z,20.00
2022-08-22T02:58:59.246Z,20.00
2022-08-22T03:01:29.973Z,20.00
2022-08-22T03:04:15.298Z,20.00
2022-08-22T03:06:59.412Z,20.00
2022-08-22T03:09:30.067Z,20.00
2022-08-22T03:12:15.630Z,20.00
2022-08-22T03:14:44.830Z,20.00
2022-08-22T03:17:18.748Z,19.90
2022-08-22T03:19:57.779Z,19.90
2022-08-22T03:22:27.550Z,20.00
2022-08-22T03:25:09.808Z,20.00
2022-08-22T03:28:03.085Z,19.90
2022-08-22T03:30:40.846Z,19.90
2022-08-22T03:33:16.166Z,19.90
2022-08-22T03:35:45.696Z,19.90
2022-08-22T03:38:24.596Z,20.00
2022-08-22T03:41:03.532Z,20.00
2022-08-22T03:43:30.367Z,20.00
2022-08-22T03:46:17.463Z,20.10
2022-08-22T03:48:48.264Z,20.10
2022-08-22T03:51:23.811Z,20.10
2022-08-22T03:53:51.215Z,20.10
2022-08-22T03:56:21.030Z,20.10
2022-08-22T03:58:53.919Z,20.10
2022-08-22T04:01:35.091Z,20.10
2022-08-22T04:04:10.967Z,20.10
2022-08-22T04:06:43.598Z,20.10
2022-08-22T04:09:31.238Z,20.10
2022-08-22T04:11:59.661Z,20.10
2022-08-22T04:14:29.252Z,20.20
2022-08-22T04:17:15.461Z,20.20
2022-08-22T04:19:55.272Z,20.20
2022-08-22T04:22:28.317Z,20.10
2022-08-22T04:25:07.956Z,20.10
2022-08-22T04:27:47.985Z,20.00
2022-08-22T04:30:25.224Z,20.10
2022-08-22T04:32:54.891Z,20.10
2022-08-22T04:35:40.453Z,20.20
2022-08-22T04:38:14.551Z,20.30
2022-08-22T04:40:48.531Z,20.50
2022-08-22T04:43:23.396Z,20.50
2022-08-22T04:46:11.377Z,20.50
2022-08-22T04:48:41.228Z,20.60
2022-08-22T04:51:15.465Z,20.50
2022-08-22T04:54:03.041Z,20.50
2022-08-22T04:56:35.990Z,20.60
2022-08-22T04:59:16.392Z,20.70
2022-08-22T05:01:46.867Z,20.70
2022-08-22T05:04:19.919Z,20.60
2022-08-22T05:07:06.978Z,20.50
2022-08-22T05:09:37.519Z,20.50
2022-08-22T05:12:07.394Z,20.40
2022-08-22T05:14:40.002Z,20.40
2022-08-22T05:17:09.141Z,20.50
2022-08-22T05:19:40.140Z,20.50
2022-08-22T05:22:11.259Z,20.50
2022-08-22T05:24:43.924Z,20.50
2022-08-22T05:27:21.913Z,20.50
2022-08-22T05:29:58.678Z,20.40
2022-08-22T05:32:41.325Z,20.40
2022-08-22T05:35:08.810Z,20.40
2022-08-22T05:37:41.603Z,20.40
2022-08-22T05:40:11.384Z,20.40
2022-08-22T05:42:38.201Z,20.30
2022-08-22T05:45:08.564Z,20.30
2022-08-22T05:47:45.305Z,20.30
2022-08-22T05:50:20.256Z,20.40
2022-08-22T05:53:06.395Z,20.30
2022-08-22T05:55:33.259Z,20.30
2022-08-22T05:58:03.018Z,20.20
2022-08-22T06:00:32.569Z,20.00
2022-08-22T06:03:09.471Z,20.00
2022-08-22T06:05:38.646Z,19.90
2022-08-22T06:08:14.306Z,19.90
2022-08-22T06:10:48.031Z,20.00
2022-08-22T06:13:25.504Z,20.00
2022-08-22T06:16:11.956Z,20.10
2022-08-22T06:18:40.178Z,20.30
2022-08-22T06:21:09.815Z,20.50
2022-08-22T06:23:39.078Z,20.50
2022-08-22T06:26:21.175Z,20.60
2022-08-22T06:28:55.045Z,20.70
2022-08-22T06:31:25.295Z,20.70
2022-08-22T06:33:58.190Z,20.70
2022-08-22T06:36:31.817Z,20.70
2022-08-22T06:39:07.767Z,20.80
2022-08-22T06:41:39.793Z,20.80
2022-08-22T06:44:07.204Z,20.90
2022-08-22T06:46:36.264Z,20.90
2022-08-22T06:49:04.349Z,20.90
2022-08-22T06:51:31.291Z,21.10
2022-08-22T06:54:03.723Z,21.00
2022-08-22T06:56:34.289Z,20.90
2022-08-22T06:59:02.764Z,20.80
2022-08-22T07:01:39.735Z,20.80
2022-08-22T07:04:08.709Z,20.80
2022-08-22T07:06:38.420Z,20.90
2022-08-22T07:09:07.177Z,21.00
2022-08-22T07:11:39.513Z,21.20
2022-08-22T07:14:14.505Z,21.20
2022-08-22T07:16:42.605Z,21.10
2022-08-22T07:19:10.223Z,21.10
2022-08-22T07:21:47.314Z,21.00
2022-08-22T07:24:16.109Z,21.10
2022-08-22T07:26:49.003Z,21.10
2022-08-22T07:29:31.117Z,21.00
2022-08-22T07:32:10.205Z,20.90
2022-08-22T07:34:38.142Z,20.90
2022-08-22T07:37:07.555Z,20.90
2022-08-22T07:39:58.111Z,20.90
2022-08-22T07:42:31.842Z,21.00
2022-08-22T07:45:01.708Z,21.10
2022-08-22T07:47:49.220Z,21.10
2022-08-22T07:50:19.530Z,21.10
2022-08-22T07:52:47.119Z,21.20
2022-08-22T07:55:18.880Z,21.20
2022-08-22T07:58:05.864Z,21.10
2022-08-22T08:00:33.115Z,21.20
2022-08-22T08:03:04.600Z,21.30
2022-08-22T08:05:32.561Z,21.20
2022-08-22T08:08:01.204Z,21.20
2022-08-22T08:10:33.073Z,21.30
2022-08-22T08:13:02.156Z,21.40
2022-08-22T08:15:30.461Z,21.50
2022-08-22T08:18:00.569Z,21.50
2022-08-22T08:20:28.552Z,21.50
2022-08-22T08:22:56.200Z,21.50
2022-08-22T08:25:26.153Z,21.50
2022-08-22T08:28:12.279Z,21.50
2022-08-22T08:30:43.159Z,21.60
2022-08-22T08:33:24.210Z,21.70
2022-08-22T08:36:02.032Z,21.70
2022-08-22T08:38:38.018Z,21.70
2022-08-22T08:41:37.321Z,21.60
2022-08-22T08:44:10.173Z,21.80
2022-08-22T08:46:55.287Z,21.80
2022-08-22T08:49:25.492Z,21.70
2022-08-22T08:52:10.271Z,21.60
2022-08-22T08:55:21.778Z,21.60
2022-08-22T08:57:55.444Z,21.60
2022-08-22T09:00:29.118Z,21.60
2022-08-22T09:03:00.658Z,21.60
2022-08-22T09:06:07.213Z,21.60
2022-08-22T09:08:34.231Z,21.60
2022-08-22T09:11:19.398Z,21.50
2022-08-22T09:14:14.142Z,21.70
2022-08-22T09:16:47.312Z,21.70
2022-08-22T09:19:27.272Z,21.80
2022-08-22T09:25:10.253Z,22.00
2022-08-22T09:27:46.222Z,22.10
2022-08-22T09:30:28.642Z,22.20
2022-08-22T09:33:02.264Z,22.40
2022-08-22T09:35:49.491Z,22.60
2022-08-22T09:38:28.098Z,22.80
2022-08-22T09:40:16.041Z,21.90
2022-08-22T09:41:01.458Z,22.90
2022-08-22T09:43:34.649Z,22.90
2022-08-22T09:46:36.874Z,23.00
2022-08-22T09:49:12.903Z,23.10
2022-08-22T09:51:44.981Z,23.40
2022-08-22T09:54:32.873Z,23.50
2022-08-22T09:57:00.151Z,23.50
2022-08-22T09:59:26.928Z,23.30
2022-08-22T10:02:00.662Z,23.20
2022-08-22T10:04:31.164Z,22.90
2022-08-22T10:07:06.462Z,23.10
2022-08-22T10:09:57.468Z,23.00
2022-08-22T10:12:35.171Z,22.90
2022-08-22T10:15:09.054Z,23.00
2022-08-22T10:17:40.983Z,22.90
2022-08-22T10:20:17.961Z,22.80
2022-08-22T10:23:05.483Z,22.80
2022-08-22T10:25:35.154Z,22.80
2022-08-22T10:28:20.325Z,22.70
2022-08-22T10:31:02.162Z,22.60
2022-08-22T10:33:34.402Z,22.80
2022-08-22T10:36:07.840Z,22.90
2022-08-22T10:38:46.339Z,23.00
2022-08-22T10:41:36.776Z,23.10
2022-08-22T10:44:03.970Z,23.00
2022-08-22T10:46:37.714Z,23.20
2022-08-22T10:49:16.487Z,23.20
2022-08-22T10:51:58.364Z,23.20
2022-08-22T10:54:28.273Z,23.20
2022-08-22T10:57:09.560Z,23.20
2022-08-22T10:59:36.484Z,23.20
2022-08-22T11:02:03.254Z,23.50
2022-08-22T11:04:32.885Z,23.50
2022-08-22T11:07:21.454Z,23.80
2022-08-22T11:09:53.809Z,23.90
2022-08-22T11:12:24.043Z,24.30
2022-08-22T11:15:00.981Z,24.40
2022-08-22T11:17:34.657Z,24.80
2022-08-22T11:20:14.220Z,24.90
2022-08-22T11:22:41.042Z,24.60
2022-08-22T11:25:11.385Z,24.60
2022-08-22T11:27:40.151Z,24.70
2022-08-22T11:30:18.358Z,24.70
2022-08-22T11:32:58.886Z,24.70
2022-08-22T11:35:31.915Z,24.60
2022-08-22T11:37:58.842Z,24.60
2022-08-22T11:40:31.920Z,24.60
2022-08-22T11:43:17.288Z,24.20
2022-08-22T11:45:51.358Z,24.20
2022-08-22T11:48:21.272Z,24.20
2022-08-22T11:51:13.115Z,24.40
2022-08-22T11:53:53.674Z,24.40
2022-08-22T11:56:20.448Z,24.40
2022-08-22T11:58:47.462Z,24.40
2022-08-22T12:01:22.015Z,24.50
2022-08-22T12:03:58.493Z,24.50
2022-08-22T12:06:44.532Z,24.40
2022-08-22T12:09:23.417Z,24.20
2022-08-22T12:11:59.091Z,24.30
2022-08-22T12:14:47.409Z,24.20
2022-08-22T12:17:33.541Z,24.20
2022-08-22T12:20:16.114Z,24.10
2022-08-22T12:23:02.804Z,24.30
2022-08-22T12:25:44.475Z,24.30
2022-08-22T12:28:17.565Z,24.30
2022-08-22T12:31:01.081Z,24.40
2022-08-22T12:33:28.231Z,24.30
2022-08-22T12:36:02.520Z,24.30
2022-08-22T12:38:34.833Z,24.30
2022-08-22T12:41:28.334Z,24.20
2022-08-22T12:44:21.042Z,24.10
2022-08-22T12:46:50.921Z,24.10
2022-08-22T12:49:20.699Z,24.00
2022-08-22T12:52:00.957Z,24.00
2022-08-22T12:54:50.012Z,24.00
2022-08-22T12:57:23.773Z,23.90
2022-08-22T12:59:59.350Z,23.80
2022-08-22T13:02:31.749Z,23.90
2022-08-22T13:05:00.239Z,23.90
2022-08-22T13:07:29.174Z,23.80
2022-08-22T13:10:17.394Z,23.80
2022-08-22T13:12:50.361Z,23.80
2022-08-22T13:15:31.674Z,23.80
2022-08-22T13:18:19.006Z,23.70
2022-08-22T13:20:50.044Z,23.80
2022-08-22T13:23:24.666Z,23.70
2022-08-22T13:26:12.708Z,23.80
2022-08-22T13:29:15.527Z,23.70
2022-08-22T13:31:50.552Z,23.80
2022-08-22T13:34:39.844Z,23.90
2022-08-22T13:37:11.524Z,23.80
2022-08-22T13:39:41.211Z,23.50
2022-08-22T13:42:20.422Z,23.40
2022-08-22T13:44:59.411Z,23.30
2022-08-22T13:47:31.759Z,23.20
2022-08-22T13:50:07.109Z,23.10
2022-08-22T13:52:33.870Z,23.10
2022-08-22T13:55:12.277Z,23.10
2022-08-22T13:57:42.463Z,23.10
2022-08-22T14:00:12.834Z,23.10
2022-08-22T14:03:01.838Z,23.10
2022-08-22T14:05:36.206Z,23.10
2022-08-22T14:08:12.949Z,23.10
2022-08-22T14:10:45.584Z,23.10
2022-08-22T14:13:23.715Z,23.10
2022-08-22T14:15:57.857Z,23.00
2022-08-22T14:18:31.790Z,22.90
2022-08-22T14:21:20.348Z,22.90
2022-08-22T14:23:50.708Z,22.90
2022-08-22T14:26:47.795Z,22.90
2022-08-22T14:29:16.200Z,23.00
2022-08-22T14:31:54.793Z,23.00
2022-08-22T14:34:21.995Z,22.90
2022-08-22T14:37:00.527Z,22.90
2022-08-22T14:39:42.880Z,22.90
2022-08-22T14:42:14.059Z,22.80
2022-08-22T14:44:46.064Z,22.80
2022-08-22T14:47:54.535Z,22.80
2022-08-22T14:50:32.364Z,22.70
2022-08-22T14:53:07.300Z,22.80
2022-08-22T14:55:35.482Z,22.80
2022-08-22T14:58:05.837Z,22.80
2022-08-22T15:00:53.031Z,22.90
2022-08-22T15:03:19.792Z,22.90
2022-08-22T15:05:50.140Z,22.90
2022-08-22T15:08:21.764Z,22.90
2022-08-22T15:11:04.843Z,22.90
2022-08-22T15:13:34.997Z,23.00
2022-08-22T15:16:12.715Z,22.90
2022-08-22T15:18:41.269Z,22.90
2022-08-22T15:21:24.199Z,22.90
2022-08-22T15:23:53.682Z,22.90
2022-08-22T15:26:23.993Z,22.80
2022-08-22T15:28:57.276Z,22.80
2022-08-22T15:31:24.447Z,22.70
2022-08-22T15:33:51.794Z,22.70
2022-08-22T15:36:21.791Z,22.70
2022-08-22T15:38:57.430Z,22.60
2022-08-22T15:41:24.227Z,22.60
2022-08-22T15:44:32.596Z,22.50
2022-08-22T15:47:25.307Z,22.40
2022-08-22T15:50:05.919Z,22.40
2022-08-22T15:52:35.693Z,22.30
2022-08-22T15:55:06.951Z,22.40
2022-08-22T15:57:35.202Z,22.30
2022-08-22T16:00:12.357Z,22.30
2022-08-22T16:02:53.320Z,22.20
2022-08-22T16:05:20.188Z,22.20
2022-08-22T16:07:49.337Z,22.20
2022-08-22T16:10:22.177Z,22.10
2022-08-22T16:13:07.825Z,22.20
2022-08-22T16:15:52.660Z,22.10
2022-08-22T16:18:33.203Z,22.10
2022-08-22T16:21:12.284Z,22.10
2022-08-22T16:23:51.436Z,22.00
2022-08-22T16:26:30.428Z,21.90
2022-08-22T16:28:58.552Z,21.80
2022-08-22T16:31:28.990Z,21.80
2022-08-22T16:33:57.920Z,21.70
2022-08-22T16:36:40.164Z,21.60
2022-08-22T16:39:10.807Z,21.70
2022-08-22T16:41:40.938Z,21.60
2022-08-22T16:44:23.299Z,21.60
2022-08-22T16:46:52.192Z,21.50
2022-08-22T16:49:29.571Z,21.50
2022-08-22T16:52:15.289Z,21.40
2022-08-22T16:54:46.570Z,21.40
2022-08-22T16:57:36.638Z,21.40
2022-08-22T17:00:22.935Z,21.30
2022-08-22T17:02:50.171Z,21.30
2022-08-22T17:05:16.965Z,21.20
2022-08-22T17:07:43.708Z,21.20
2022-08-22T17:10:26.887Z,21.20
2022-08-22T17:13:06.450Z,21.20
2022-08-22T17:15:39.375Z,21.10
2022-08-22T17:18:12.145Z,21.00
2022-08-22T17:20:42.238Z,21.00
2022-08-22T17:23:14.933Z,21.00
2022-08-22T17:26:00.251Z,21.00
2022-08-22T17:28:39.345Z,20.90
2022-08-22T17:31:06.124Z,20.80
2022-08-22T17:33:51.217Z,20.80
2022-08-22T17:36:34.259Z,20.70
2022-08-22T17:39:01.112Z,20.70
2022-08-22T17:41:27.867Z,20.70
2022-08-22T17:44:00.874Z,20.70
2022-08-22T17:46:34.247Z,20.60
2022-08-22T17:49:36.591Z,20.60
2022-08-22T17:52:06.873Z,20.50
2022-08-22T17:54:40.505Z,20.50
2022-08-22T17:57:10.499Z,20.50
2022-08-22T17:59:59.589Z,20.40
2022-08-22T18:02:29.792Z,20.40
2022-08-22T18:05:03.056Z,20.40
2022-08-22T18:07:32.650Z,20.40
2022-08-22T18:10:05.920Z,20.40
2022-08-22T18:12:46.407Z,20.30
2022-08-22T18:15:27.814Z,20.20
2022-08-22T18:18:19.060Z,20.30
2022-08-22T18:20:58.282Z,20.30
2022-08-22T18:23:40.607Z,20.30
2022-08-22T18:26:07.744Z,20.20
2022-08-22T18:28:40.929Z,20.20
2022-08-22T18:31:20.784Z,20.20
2022-08-22T18:33:55.595Z,20.30
2022-08-22T18:36:25.818Z,20.30
2022-08-22T18:38:59.661Z,20.30
2022-08-22T18:41:31.748Z,20.40
2022-08-22T18:43:59.536Z,20.40
2022-08-22T18:46:32.497Z,20.40
2022-08-22T18:49:15.592Z,20.50
2022-08-22T18:51:43.166Z,20.50
2022-08-22T18:54:11.525Z,20.50
2022-08-22T18:56:43.564Z,20.50
2022-08-22T18:59:25.789Z,20.50
2022-08-22T19:01:52.611Z,20.50
2022-08-22T19:04:29.907Z,20.50
2022-08-22T19:07:08.929Z,20.50
2022-08-22T19:09:35.942Z,20.50
2022-08-22T19:12:02.862Z,20.40
2022-08-22T19:14:42.137Z,20.40
2022-08-22T19:17:15.125Z,20.40
2022-08-22T19:20:07.161Z,20.30
2022-08-22T19:22:35.915Z,20.30
2022-08-22T19:25:09.775Z,20.30
2022-08-22T19:27:40.519Z,20.30
2022-08-22T19:30:28.243Z,20.40
2022-08-22T19:32:59.197Z,20.40
2022-08-22T19:35:26.190Z,20.40
2022-08-22T19:37:53.466Z,20.40
2022-08-22T19:40:50.200Z,20.40
2022-08-22T19:43:29.556Z,20.40
2022-08-22T19:45:57.293Z,20.40
2022-08-22T19:48:28.538Z,20.40
2022-08-22T19:51:12.898Z,20.40
2022-08-22T19:53:50.685Z,20.40
2022-08-22T19:56:25.256Z,20.40
2022-08-22T19:58:56.848Z,20.40
2022-08-22T20:01:23.670Z,20.40
2022-08-22T20:03:53.565Z,20.40
2022-08-22T20:06:40.686Z,20.40
2022-08-22T20:09:25.626Z,20.30
2022-08-22T20:12:03.880Z,20.30
2022-08-22T20:14:32.620Z,20.30
2022-08-22T20:17:05.664Z,20.20
2022-08-22T20:19:38.486Z,20.30
2022-08-22T20:22:05.907Z,20.20
2022-08-22T20:24:39.539Z,20.10
2022-08-22T20:27:14.592Z,20.10
2022-08-22T20:29:43.959Z,20.10
2022-08-22T20:32:12.923Z,20.10
2022-08-22T20:34:40.155Z,20.10
2022-08-22T20:37:29.319Z,20.00
2022-08-22T20:40:53.272Z,20.10
2022-08-22T20:43:10.570Z,20.00
2022-08-22T20:45:41.903Z,20.10
2022-08-22T20:48:10.756Z,20.10
2022-08-22T20:50:37.752Z,20.00
2022-08-22T20:53:30.895Z,20.00
2022-08-22T20:55:57.679Z,20.00
2022-08-22T20:58:27.698Z,20.00
2022-08-22T21:00:57.016Z,20.00
2022-08-22T21:03:38.906Z,19.90
2022-08-22T21:06:12.112Z,19.90
2022-08-22T21:08:39.459Z,19.90
2022-08-22T21:11:25.453Z,19.90
2022-08-22T21:13:52.828Z,19.90
2022-08-22T21:16:21.171Z,19.90
2022-08-22T21:18:54.969Z,19.90
2022-08-22T21:21:24.964Z,19.90
2022-08-22T21:23:57.410Z,19.90
2022-08-22T21:26:36.625Z,19.80
2022-08-22T21:29:06.431Z,19.90
2022-08-22T21:31:35.378Z,19.90
2022-08-22T21:34:02.507Z,19.90
2022-08-22T21:36:30.680Z,19.90
2022-08-22T21:38:59.246Z,19.90
2022-08-22T21:41:32.290Z,19.90
2022-08-22T21:44:17.840Z,19.90
2022-08-22T21:46:44.778Z,19.90
2022-08-22T21:49:20.128Z,19.90
2022-08-22T21:51:46.977Z,19.80
2022-08-22T21:54:26.019Z,19.80
2022-08-22T21:56:53.739Z,19.80
2022-08-22T21:59:43.218Z,19.80
2022-08-22T22:02:27.939Z,19.70
2022-08-22T22:04:54.885Z,19.70
2022-08-22T22:07:23.770Z,19.70
2022-08-22T22:09:54.456Z,19.70
2022-08-22T22:12:21.946Z,19.70
2022-08-22T22:14:51.877Z,19.70
2022-08-22T22:17:19.408Z,19.70
2022-08-22T22:19:46.393Z,19.60
2022-08-22T22:22:13.257Z,19.60
2022-08-22T22:24:40.136Z,19.60
2022-08-22T22:27:07.482Z,19.60
2022-08-22T22:29:34.438Z,19.60
2022-08-22T22:32:01.421Z,19.50
2022-08-22T22:34:28.233Z,19.50
2022-08-22T22:36:55.210Z,19.50
2022-08-22T22:39:22.085Z,19.50
2022-08-22T22:41:49.315Z,19.50
2022-08-22T22:44:16.138Z,19.50
2022-08-22T22:46:42.954Z,19.40
2022-08-22T22:49:09.744Z,19.40
2022-08-22T22:51:36.618Z,19.40
2022-08-22T22:54:03.710Z,19.40
2022-08-22T22:56:31.393Z,19.40
2022-08-22T22:59:01.002Z,19.40
2022-08-22T23:01:58.649Z,19.40
2022-08-22T23:04:25.414Z,19.40
2022-08-22T23:06:52.302Z,19.30
2022-08-22T23:09:19.254Z,19.30
2022-08-22T23:11:46.047Z,19.30
2022-08-22T23:14:13.022Z,19.30
2022-08-22T23:16:40.352Z,19.30
2022-08-22T23:19:08.090Z,19.30
2022-08-22T23:21:34.871Z,19.30
2022-08-22T23:24:01.902Z,19.20
2022-08-22T23:26:28.778Z,19.20
2022-08-22T23:28:56.088Z,19.20
2022-08-22T23:31:28.933Z,19.20
2022-08-22T23:33:56.453Z,19.20
2022-08-22T23:36:23.702Z,19.20
2022-08-22T23:38:51.437Z,19.20
2022-08-22T23:41:19.292Z,19.20
2022-08-22T23:43:47.409Z,19.20
2022-08-22T23:46:15.171Z,19.20
2022-08-22T23:48:42.064Z,19.20
2022-08-22T23:51:13.052Z,19.10
2022-08-22T23:53:41.233Z,19.20
2022-08-22T23:56:09.080Z,19.10
2022-08-22T23:58:48.962Z,19.20
